createdAt,value
2018-05-13T00:00:42.839Z,99.99
2018-05-13T00:01:51.489Z,99.99
2018-05-13T00:03:00.138Z,99.99
2018-05-13T00:04:08.777Z,99.99
2018-05-13T00:05:17.713Z,99.99
2018-05-13T00:06:26.348Z,99.99
2018-05-13T00:07:34.995Z,99.99
2018-05-13T00:08:43.644Z,99.99
2018-05-13T00:09:52.284Z,99.99
2018-05-13T00:11:01.192Z,99.99
2018-05-13T00:12:09.837Z,99.99
2018-05-13T00:13:18.487Z,99.99
2018-05-13T00:14:27.129Z,99.99
2018-05-13T00:15:36.051Z,99.99
2018-05-13T00:16:44.691Z,99.99
2018-05-13T00:17:53.341Z,99.99
2018-05-13T00:19:01.987Z,99.99
2018-05-13T00:20:10.641Z,99.99
2018-05-13T00:21:19.281Z,99.99
2018-05-13T00:22:27.932Z,99.99
2018-05-13T00:23:36.580Z,99.99
2018-05-13T00:24:45.225Z,99.99
2018-05-13T00:25:53.867Z,99.99
2018-05-13T00:27:02.511Z,99.99
2018-05-13T00:28:11.159Z,99.99
2018-05-13T00:29:19.855Z,99.99
2018-05-13T00:30:28.454Z,99.99
2018-05-13T00:31:37.091Z,99.99
2018-05-13T00:32:45.745Z,99.99
2018-05-13T00:33:54.656Z,99.99
2018-05-13T00:35:03.575Z,99.99
2018-05-13T00:36:12.478Z,99.99
2018-05-13T00:37:21.137Z,99.99
2018-05-13T00:38:29.789Z,99.99
2018-05-13T00:39:38.440Z,99.99
2018-05-13T00:40:47.078Z,99.99
2018-05-13T00:41:55.991Z,99.99
2018-05-13T00:43:04.676Z,99.99
2018-05-13T00:44:13.297Z,99.99
2018-05-13T00:45:21.947Z,99.99
2018-05-13T00:46:30.583Z,99.99
2018-05-13T00:47:39.235Z,99.99
2018-05-13T00:48:47.875Z,99.99
2018-05-13T00:49:56.798Z,99.99
2018-05-13T00:51:05.441Z,99.99
2018-05-13T00:52:14.087Z,99.99
2018-05-13T00:53:22.730Z,99.99
2018-05-13T00:54:31.383Z,99.99
2018-05-13T00:55:40.020Z,99.99
2018-05-13T00:56:48.669Z,99.99
2018-05-13T00:57:57.313Z,99.99
2018-05-13T00:59:05.972Z,99.99
2018-05-13T01:00:14.613Z,99.99
2018-05-13T01:01:23.256Z,99.99
2018-05-13T01:02:31.898Z,99.99
2018-05-13T01:03:40.542Z,99.99
2018-05-13T01:04:49.464Z,99.99
2018-05-13T01:05:58.372Z,99.99
2018-05-13T01:07:07.022Z,99.99
2018-05-13T01:08:15.663Z,99.99
2018-05-13T01:09:24.584Z,99.99
2018-05-13T01:10:33.489Z,99.99
2018-05-13T01:11:42.140Z,99.99
2018-05-13T01:12:50.777Z,99.99
2018-05-13T01:13:59.698Z,99.99
2018-05-13T01:15:08.349Z,99.99
2018-05-13T01:16:16.994Z,99.99
2018-05-13T01:17:25.627Z,99.99
2018-05-13T01:18:34.278Z,99.99
2018-05-13T01:19:42.927Z,99.99
2018-05-13T01:20:51.575Z,99.99
2018-05-13T01:22:00.226Z,99.99
2018-05-13T01:23:08.860Z,99.99
2018-05-13T01:24:17.779Z,99.99
2018-05-13T01:25:26.419Z,99.99
2018-05-13T01:26:35.072Z,99.99
2018-05-13T01:27:43.714Z,99.99
2018-05-13T01:28:52.359Z,99.99
2018-05-13T01:30:01.006Z,99.99
2018-05-13T01:31:09.914Z,99.99
2018-05-13T01:32:18.569Z,99.99
2018-05-13T01:33:27.208Z,99.99
2018-05-13T01:34:35.871Z,99.99
2018-05-13T01:35:44.509Z,99.99
2018-05-13T01:36:53.419Z,99.99
2018-05-13T01:38:02.065Z,99.99
2018-05-13T01:39:10.982Z,99.99
2018-05-13T01:40:19.629Z,99.99
2018-05-13T01:41:28.272Z,99.99
2018-05-13T01:42:36.918Z,99.99
2018-05-13T01:43:45.562Z,99.99
2018-05-13T01:44:54.489Z,99.99
2018-05-13T01:46:03.132Z,99.99
2018-05-13T01:47:11.779Z,99.99
2018-05-13T01:48:20.426Z,99.99
2018-05-13T01:49:29.080Z,99.99
2018-05-13T01:50:37.724Z,99.99
2018-05-13T01:51:46.374Z,99.99
2018-05-13T01:52:55.283Z,99.99
2018-05-13T01:54:04.205Z,99.99
2018-05-13T01:55:12.849Z,99.99
2018-05-13T01:56:21.494Z,99.99
2018-05-13T01:57:30.137Z,99.99
2018-05-13T01:58:38.782Z,99.99
2018-05-13T01:59:47.430Z,99.99
2018-05-13T02:00:56.075Z,99.99
2018-05-13T02:02:04.722Z,99.99
2018-05-13T02:03:13.360Z,99.99
2018-05-13T02:04:22.014Z,99.99
2018-05-13T02:05:30.923Z,99.99
2018-05-13T02:06:39.565Z,99.99
2018-05-13T02:07:48.208Z,99.99
2018-05-13T02:08:56.857Z,99.99
2018-05-13T02:10:05.505Z,99.99
2018-05-13T02:11:14.149Z,99.99
2018-05-13T02:12:23.057Z,99.99
2018-05-13T02:13:31.705Z,99.99
2018-05-13T02:14:40.354Z,99.99
2018-05-13T02:15:49.271Z,99.99
2018-05-13T02:16:57.918Z,99.99
2018-05-13T02:18:06.558Z,99.99
2018-05-13T02:19:15.203Z,99.99
2018-05-13T02:20:23.848Z,99.99
2018-05-13T02:21:32.502Z,99.99
2018-05-13T02:22:41.146Z,99.99
2018-05-13T02:23:49.793Z,99.99
2018-05-13T02:24:58.439Z,99.99
2018-05-13T02:26:07.095Z,99.99
2018-05-13T02:27:15.729Z,99.99
2018-05-13T02:28:24.644Z,99.99
2018-05-13T02:29:33.285Z,99.99
2018-05-13T02:30:41.940Z,99.99
2018-05-13T02:31:50.851Z,99.99
2018-05-13T02:32:59.502Z,99.99
2018-05-13T02:34:08.412Z,99.99
2018-05-13T02:35:17.062Z,99.99
2018-05-13T02:36:25.722Z,99.99
2018-05-13T02:37:34.360Z,99.99
2018-05-13T02:38:43.280Z,99.99
2018-05-13T02:39:51.917Z,99.99
2018-05-13T02:41:00.572Z,99.99
2018-05-13T02:42:09.740Z,99.99
2018-05-13T02:43:18.657Z,99.99
2018-05-13T02:44:27.294Z,99.99
2018-05-13T02:45:35.953Z,99.99
2018-05-13T02:46:44.859Z,99.99
2018-05-13T02:47:53.773Z,99.99
2018-05-13T02:49:02.412Z,99.99
2018-05-13T02:50:11.064Z,99.99
2018-05-13T02:51:19.719Z,99.99
2018-05-13T02:52:28.369Z,99.99
2018-05-13T02:53:37.018Z,99.99
2018-05-13T02:54:45.657Z,99.99
2018-05-13T02:55:54.836Z,99.99
2018-05-13T02:57:03.758Z,99.99
2018-05-13T02:58:12.426Z,99.99
2018-05-13T02:59:21.061Z,99.99
2018-05-13T03:00:29.719Z,99.99
2018-05-13T03:01:38.355Z,99.99
2018-05-13T03:02:47.013Z,99.99
2018-05-13T03:03:55.658Z,99.99
2018-05-13T03:05:04.308Z,99.99
2018-05-13T03:06:12.954Z,99.99
2018-05-13T03:07:21.617Z,99.99
2018-05-13T03:08:30.261Z,99.99
2018-05-13T03:09:39.172Z,99.99
2018-05-13T03:10:48.083Z,99.99
2018-05-13T03:11:56.995Z,99.99
2018-05-13T03:13:05.929Z,99.99
2018-05-13T03:14:14.570Z,99.99
2018-05-13T03:15:23.230Z,99.99
2018-05-13T03:16:31.879Z,99.99
2018-05-13T03:17:40.536Z,99.99
2018-05-13T03:18:49.444Z,99.99
2018-05-13T03:19:58.100Z,99.99
2018-05-13T03:21:06.735Z,99.99
2018-05-13T03:22:15.390Z,99.99
2018-05-13T03:23:24.037Z,99.99
2018-05-13T03:24:32.678Z,99.99
2018-05-13T03:25:41.333Z,99.99
2018-05-13T03:26:49.976Z,99.99
2018-05-13T03:27:58.616Z,99.99
2018-05-13T03:29:07.261Z,99.99
2018-05-13T03:30:15.905Z,99.99
2018-05-13T03:31:24.565Z,99.99
2018-05-13T03:32:33.208Z,99.99
2018-05-13T03:33:41.859Z,99.99
2018-05-13T03:34:50.499Z,99.99
2018-05-13T03:35:59.415Z,99.99
2018-05-13T03:37:08.329Z,99.99
2018-05-13T03:38:16.979Z,99.99
2018-05-13T03:39:25.626Z,99.99
2018-05-13T03:40:34.551Z,99.99
2018-05-13T03:41:43.187Z,99.99
2018-05-13T03:42:51.837Z,99.99
2018-05-13T03:44:00.477Z,99.99
2018-05-13T03:45:09.124Z,99.99
2018-05-13T03:46:17.775Z,99.99
2018-05-13T03:47:26.421Z,99.99
2018-05-13T03:48:35.067Z,99.99
2018-05-13T03:49:43.709Z,99.99
2018-05-13T03:50:52.359Z,99.99
2018-05-13T03:52:00.999Z,99.99
2018-05-13T03:53:09.653Z,99.99
2018-05-13T03:54:18.289Z,99.99
2018-05-13T03:55:26.940Z,99.99
2018-05-13T03:56:35.846Z,99.99
2018-05-13T03:57:44.497Z,99.99
2018-05-13T03:58:53.138Z,99.99
2018-05-13T04:00:02.048Z,99.99
2018-05-13T04:01:10.692Z,99.99
2018-05-13T04:02:19.346Z,99.99
2018-05-13T04:03:27.987Z,99.99
2018-05-13T04:04:36.628Z,99.99
2018-05-13T04:05:45.274Z,99.99
2018-05-13T04:06:53.919Z,99.99
2018-05-13T04:08:02.840Z,99.99
2018-05-13T04:09:11.482Z,99.99
2018-05-13T04:10:20.135Z,99.99
2018-05-13T04:11:28.772Z,99.99
2018-05-13T04:12:37.428Z,99.99
2018-05-13T04:13:46.067Z,99.99
2018-05-13T04:14:54.715Z,99.99
2018-05-13T04:16:03.358Z,99.99
2018-05-13T04:17:12.276Z,99.99
2018-05-13T04:18:20.925Z,99.99
2018-05-13T04:19:29.567Z,99.99
2018-05-13T04:20:38.206Z,99.99
2018-05-13T04:21:47.126Z,99.99
2018-05-13T04:22:56.034Z,99.99
2018-05-13T04:24:04.679Z,99.99
2018-05-13T04:25:13.329Z,99.99
2018-05-13T04:26:21.976Z,99.99
2018-05-13T04:27:30.623Z,99.99
2018-05-13T04:28:39.269Z,99.99
2018-05-13T04:29:47.919Z,99.99
2018-05-13T04:30:56.831Z,99.99
2018-05-13T04:32:05.479Z,99.99
2018-05-13T04:33:14.124Z,99.99
2018-05-13T04:34:22.775Z,99.99
2018-05-13T04:35:31.689Z,99.99
2018-05-13T04:36:40.345Z,99.99
2018-05-13T04:37:48.989Z,99.99
2018-05-13T04:38:57.907Z,99.99
2018-05-13T04:40:06.817Z,99.99
2018-05-13T04:41:15.470Z,99.99
2018-05-13T04:42:24.390Z,99.99
2018-05-13T04:43:33.029Z,99.99
2018-05-13T04:44:42.024Z,99.99
2018-05-13T04:45:50.671Z,99.99
2018-05-13T04:46:59.315Z,99.99
2018-05-13T04:48:07.956Z,99.99
2018-05-13T04:49:16.608Z,99.99
2018-05-13T04:50:25.248Z,99.99
2018-05-13T04:51:33.896Z,99.99
2018-05-13T04:52:42.535Z,99.99
2018-05-13T04:53:51.185Z,99.99
2018-05-13T04:54:59.833Z,99.99
2018-05-13T04:56:08.476Z,99.99
2018-05-13T04:57:17.430Z,99.99
2018-05-13T04:58:26.028Z,99.99
2018-05-13T04:59:35.208Z,99.99
2018-05-13T05:00:43.859Z,99.99
2018-05-13T05:01:52.769Z,99.99
2018-05-13T05:03:01.411Z,99.99
2018-05-13T05:04:10.057Z,99.99
2018-05-13T05:05:18.701Z,99.99
2018-05-13T05:06:27.350Z,99.99
2018-05-13T05:07:35.990Z,99.99
2018-05-13T05:08:44.635Z,99.99
2018-05-13T05:09:53.281Z,99.99
2018-05-13T05:11:01.929Z,99.99
2018-05-13T05:12:10.572Z,99.99
2018-05-13T05:13:19.488Z,99.99
2018-05-13T05:14:28.131Z,99.99
2018-05-13T05:15:36.781Z,99.99
2018-05-13T05:16:45.688Z,99.99
2018-05-13T05:17:54.332Z,99.99
2018-05-13T05:19:02.981Z,99.99
2018-05-13T05:20:11.626Z,99.99
2018-05-13T05:21:20.278Z,99.99
2018-05-13T05:22:28.922Z,99.99
2018-05-13T05:23:37.570Z,99.99
2018-05-13T05:24:46.209Z,99.99
2018-05-13T05:25:54.863Z,99.99
2018-05-13T05:27:03.506Z,99.99
2018-05-13T05:28:12.154Z,99.99
2018-05-13T05:29:20.788Z,99.99
2018-05-13T05:30:29.445Z,99.99
2018-05-13T05:31:38.085Z,99.99
2018-05-13T05:32:46.737Z,99.99
2018-05-13T05:33:55.642Z,99.99
2018-05-13T05:35:04.555Z,99.99
2018-05-13T05:36:13.207Z,99.99
2018-05-13T05:37:21.859Z,99.99
2018-05-13T05:38:30.507Z,99.99
2018-05-13T05:39:39.142Z,99.99
2018-05-13T05:40:47.798Z,99.99
2018-05-13T05:41:56.711Z,99.99
2018-05-13T05:43:05.367Z,99.99
2018-05-13T05:44:14.267Z,99.99
2018-05-13T05:45:22.916Z,99.99
2018-05-13T05:46:31.557Z,99.99
2018-05-13T05:47:40.212Z,99.99
2018-05-13T05:48:48.849Z,99.99
2018-05-13T05:49:57.494Z,99.99
2018-05-13T05:51:06.144Z,99.99
2018-05-13T05:52:14.798Z,99.99
2018-05-13T05:53:23.443Z,99.99
2018-05-13T05:54:32.089Z,99.99
2018-05-13T05:55:41.002Z,99.99
2018-05-13T05:56:49.648Z,99.99
2018-05-13T05:57:58.303Z,99.99
2018-05-13T05:59:06.943Z,99.99
2018-05-13T06:00:15.594Z,99.99
2018-05-13T06:01:24.231Z,99.99
2018-05-13T06:02:32.887Z,99.99
2018-05-13T06:03:42.319Z,99.99
2018-05-13T06:04:50.969Z,99.99
2018-05-13T06:05:59.609Z,99.99
2018-05-13T06:07:08.264Z,99.99
2018-05-13T06:08:16.908Z,99.99
2018-05-13T06:09:25.556Z,99.99
2018-05-13T06:10:34.191Z,99.99
2018-05-13T06:11:42.836Z,99.99
2018-05-13T06:12:51.487Z,99.99
2018-05-13T06:14:00.133Z,99.99
2018-05-13T06:15:09.145Z,99.99
2018-05-13T06:16:17.786Z,99.99
2018-05-13T06:17:26.708Z,99.99
2018-05-13T06:18:35.610Z,99.99
2018-05-13T06:19:44.304Z,99.99
2018-05-13T06:20:52.914Z,99.99
2018-05-13T06:22:01.825Z,99.99
2018-05-13T06:23:10.471Z,99.99
2018-05-13T06:24:19.122Z,99.99
2018-05-13T06:25:27.772Z,99.99
2018-05-13T06:26:36.415Z,99.99
2018-05-13T06:27:45.060Z,99.99
2018-05-13T06:28:53.976Z,99.99
2018-05-13T06:30:02.883Z,99.99
2018-05-13T06:31:11.807Z,99.99
2018-05-13T06:32:20.455Z,99.99
2018-05-13T06:33:29.102Z,99.99
2018-05-13T06:34:37.758Z,99.99
2018-05-13T06:35:46.405Z,99.99
2018-05-13T06:36:55.327Z,99.99
2018-05-13T06:38:03.971Z,99.99
2018-05-13T06:39:12.899Z,99.99
2018-05-13T06:40:21.536Z,99.99
2018-05-13T06:41:30.184Z,99.99
2018-05-13T06:42:38.830Z,99.99
2018-05-13T06:43:47.478Z,99.99
2018-05-13T06:44:56.122Z,99.99
2018-05-13T06:46:04.776Z,99.99
2018-05-13T06:47:13.684Z,99.99
2018-05-13T06:48:22.334Z,99.99
2018-05-13T06:49:30.981Z,99.99
2018-05-13T06:50:39.633Z,99.99
2018-05-13T06:51:48.282Z,99.99
2018-05-13T06:52:57.189Z,99.99
2018-05-13T06:54:05.836Z,99.99
2018-05-13T06:55:14.483Z,99.99
2018-05-13T06:56:23.141Z,99.96
2018-05-13T06:57:32.043Z,99.99
2018-05-13T06:58:40.697Z,99.54
2018-05-13T06:59:49.610Z,99.15
2018-05-13T07:00:58.267Z,98.38
2018-05-13T07:02:06.909Z,97.91
2018-05-13T07:03:15.827Z,98.38
2018-05-13T07:04:24.476Z,97.86
2018-05-13T07:05:33.129Z,97.71
2018-05-13T07:06:41.793Z,97.81
2018-05-13T07:07:50.424Z,98.34
2018-05-13T07:08:59.077Z,97.76
2018-05-13T07:10:07.721Z,97.19
2018-05-13T07:11:16.376Z,96.99
2018-05-13T07:12:25.027Z,95.98
2018-05-13T07:13:33.673Z,96.7
2018-05-13T07:14:42.317Z,96.85
2018-05-13T07:15:50.975Z,95.89
2018-05-13T07:16:59.624Z,96.37
2018-05-13T07:18:08.276Z,95.89
2018-05-13T07:19:16.927Z,96.27
2018-05-13T07:20:25.839Z,97.14
2018-05-13T07:21:34.765Z,97.42
2018-05-13T07:22:43.413Z,97.52
2018-05-13T07:23:52.066Z,94.93
2018-05-13T07:25:00.714Z,95.6
2018-05-13T07:26:09.363Z,96.27
2018-05-13T07:27:18.011Z,96.27
2018-05-13T07:28:26.674Z,96.56
2018-05-13T07:29:35.315Z,97.04
2018-05-13T07:30:43.966Z,97.09
2018-05-13T07:31:52.883Z,96.51
2018-05-13T07:33:01.528Z,96.42
2018-05-13T07:34:10.182Z,96.32
2018-05-13T07:35:18.831Z,94.98
2018-05-13T07:36:27.479Z,93.92
2018-05-13T07:37:36.122Z,93.73
2018-05-13T07:38:45.048Z,94.49
2018-05-13T07:39:53.697Z,94.98
2018-05-13T07:41:02.348Z,92.1
2018-05-13T07:42:10.989Z,93.54
2018-05-13T07:43:19.671Z,94.69
2018-05-13T07:44:28.690Z,94.59
2018-05-13T07:45:37.345Z,94.59
2018-05-13T07:46:46.000Z,94.78
2018-05-13T07:47:54.904Z,94.21
2018-05-13T07:49:03.557Z,92.43
2018-05-13T07:50:12.204Z,91.75
2018-05-13T07:51:20.858Z,91.37
2018-05-13T07:52:29.768Z,91.85
2018-05-13T07:53:38.416Z,92.33
2018-05-13T07:54:47.065Z,92.24
2018-05-13T07:55:55.717Z,91.85
2018-05-13T07:57:04.632Z,91.18
2018-05-13T07:58:13.546Z,91.28
2018-05-13T07:59:22.191Z,91.66
2018-05-13T08:00:31.112Z,91.18
2018-05-13T08:01:39.764Z,91.95
2018-05-13T08:02:48.414Z,92.38
2018-05-13T08:03:57.063Z,91.9
2018-05-13T08:05:05.977Z,91.32
2018-05-13T08:06:14.635Z,90.94
2018-05-13T08:07:23.282Z,90.45
2018-05-13T08:08:31.931Z,89.4
2018-05-13T08:09:40.876Z,89.69
2018-05-13T08:10:49.798Z,89.78
2018-05-13T08:11:58.444Z,89.98
2018-05-13T08:13:07.093Z,89.01
2018-05-13T08:14:16.004Z,88.53
2018-05-13T08:15:24.657Z,88.96
2018-05-13T08:16:33.302Z,89.44
2018-05-13T08:17:41.955Z,89.15
2018-05-13T08:18:50.598Z,88
2018-05-13T08:19:59.250Z,88.39
2018-05-13T08:21:07.910Z,87.71
2018-05-13T08:22:16.556Z,87.18
2018-05-13T08:23:25.477Z,87.18
2018-05-13T08:24:34.119Z,86.79
2018-05-13T08:25:42.772Z,86.89
2018-05-13T08:26:51.420Z,86.89
2018-05-13T08:28:00.081Z,86.22
2018-05-13T08:29:08.805Z,85.93
2018-05-13T08:30:17.375Z,86.12
2018-05-13T08:31:26.278Z,85.35
2018-05-13T08:32:34.937Z,85.74
2018-05-13T08:33:43.583Z,85.93
2018-05-13T08:34:52.496Z,86.02
2018-05-13T08:36:01.144Z,86.83
2018-05-13T08:37:09.809Z,87.9
2018-05-13T08:38:18.460Z,86.55
2018-05-13T08:39:27.100Z,87.7
2018-05-13T08:40:35.749Z,87.37
2018-05-13T08:41:44.402Z,86.07
2018-05-13T08:42:53.056Z,85.3
2018-05-13T08:44:01.707Z,84.62
2018-05-13T08:45:10.367Z,84.62
2018-05-13T08:46:19.005Z,86.16
2018-05-13T08:47:27.664Z,87.8
2018-05-13T08:48:36.407Z,88.18
2018-05-13T08:49:44.967Z,86.11
2018-05-13T08:50:53.609Z,85.24
2018-05-13T08:52:02.270Z,83.51
2018-05-13T08:53:10.918Z,83.61
2018-05-13T08:54:19.573Z,84.09
2018-05-13T08:55:28.213Z,83.41
2018-05-13T08:56:36.866Z,83.7
2018-05-13T08:57:45.520Z,83.41
2018-05-13T08:58:54.177Z,83.22
2018-05-13T09:00:03.093Z,82.74
2018-05-13T09:01:11.999Z,83.03
2018-05-13T09:02:20.917Z,81.96
2018-05-13T09:03:30.088Z,82.35
2018-05-13T09:04:39.016Z,83.61
2018-05-13T09:05:47.656Z,83.99
2018-05-13T09:06:56.313Z,83.89
2018-05-13T09:08:04.958Z,83.89
2018-05-13T09:09:13.884Z,83.89
2018-05-13T09:10:22.525Z,84.66
2018-05-13T09:11:31.177Z,84.47
2018-05-13T09:12:39.826Z,83.22
2018-05-13T09:13:48.753Z,83.26
2018-05-13T09:14:57.409Z,82.78
2018-05-13T09:16:06.323Z,82.49
2018-05-13T09:17:14.972Z,81.81
2018-05-13T09:18:23.621Z,81.52
2018-05-13T09:19:32.282Z,82.2
2018-05-13T09:20:41.394Z,82.2
2018-05-13T09:21:50.415Z,81.91
2018-05-13T09:22:59.058Z,82.01
2018-05-13T09:24:07.718Z,81.91
2018-05-13T09:25:16.371Z,81.57
2018-05-13T09:26:25.026Z,81.62
2018-05-13T09:27:34.015Z,82.1
2018-05-13T09:28:42.678Z,80.76
2018-05-13T09:29:51.592Z,79.93
2018-05-13T09:31:00.245Z,80.37
2018-05-13T09:32:08.886Z,80.37
2018-05-13T09:33:17.541Z,80.76
2018-05-13T09:34:26.205Z,79.83
2018-05-13T09:35:34.849Z,79.69
2018-05-13T09:36:43.765Z,79.98
2018-05-13T09:37:52.679Z,80.85
2018-05-13T09:39:01.335Z,81.72
2018-05-13T09:40:10.255Z,82.29
2018-05-13T09:41:19.179Z,81.37
2018-05-13T09:42:27.825Z,80.6
2018-05-13T09:43:36.482Z,81.85
2018-05-13T09:44:45.126Z,80.41
2018-05-13T09:45:53.868Z,79.64
2018-05-13T09:47:02.702Z,81.09
2018-05-13T09:48:11.356Z,82.34
2018-05-13T09:49:20.005Z,80.02
2018-05-13T09:50:28.664Z,78.48
2018-05-13T09:51:37.310Z,78
2018-05-13T09:52:45.956Z,77.9
2018-05-13T09:53:54.605Z,78.19
2018-05-13T09:55:03.254Z,78.96
2018-05-13T09:56:11.914Z,81.02
2018-05-13T09:57:20.561Z,78.81
2018-05-13T09:58:29.217Z,79.29
2018-05-13T09:59:37.858Z,80.45
2018-05-13T10:00:46.520Z,79.97
2018-05-13T10:01:55.166Z,79.1
2018-05-13T10:03:04.088Z,80.64
2018-05-13T10:04:12.831Z,80.64
2018-05-13T10:05:21.390Z,81.02
2018-05-13T10:06:30.044Z,78.13
2018-05-13T10:07:38.699Z,77.46
2018-05-13T10:08:47.342Z,78.33
2018-05-13T10:09:55.999Z,78.61
2018-05-13T10:11:04.655Z,77.17
2018-05-13T10:12:13.307Z,75.27
2018-05-13T10:13:21.959Z,77.07
2018-05-13T10:14:30.602Z,77.5
2018-05-13T10:15:39.524Z,76.53
2018-05-13T10:16:48.178Z,75.76
2018-05-13T10:17:56.837Z,75.85
2018-05-13T10:19:05.484Z,75.47
2018-05-13T10:20:14.400Z,75.76
2018-05-13T10:21:23.052Z,76.92
2018-05-13T10:22:31.710Z,76.72
2018-05-13T10:23:40.358Z,77.69
2018-05-13T10:24:49.274Z,77.59
2018-05-13T10:25:57.924Z,77.01
2018-05-13T10:27:06.586Z,79.91
2018-05-13T10:28:15.228Z,79.95
2018-05-13T10:29:23.881Z,76.47
2018-05-13T10:30:32.534Z,75.89
2018-05-13T10:31:41.184Z,75.7
2018-05-13T10:32:49.844Z,73.86
2018-05-13T10:33:58.763Z,74.64
2018-05-13T10:35:07.415Z,75.31
2018-05-13T10:36:16.080Z,73.77
2018-05-13T10:37:25.000Z,76.09
2018-05-13T10:38:33.917Z,76.67
2018-05-13T10:39:42.572Z,75.79
2018-05-13T10:40:51.225Z,75.12
2018-05-13T10:41:59.882Z,74.64
2018-05-13T10:43:08.532Z,74.64
2018-05-13T10:44:17.190Z,76.03
2018-05-13T10:45:25.835Z,76.9
2018-05-13T10:46:34.490Z,73.61
2018-05-13T10:47:43.141Z,76.51
2018-05-13T10:48:51.801Z,72.94
2018-05-13T10:50:00.453Z,71.78
2018-05-13T10:51:09.103Z,71.68
2018-05-13T10:52:18.088Z,72.13
2018-05-13T10:53:26.741Z,74.06
2018-05-13T10:54:35.395Z,73.77
2018-05-13T10:55:44.042Z,74.06
2018-05-13T10:56:52.977Z,75.79
2018-05-13T10:58:01.630Z,76.32
2018-05-13T10:59:10.284Z,74
2018-05-13T11:00:18.932Z,73.8
2018-05-13T11:01:27.590Z,74.96
2018-05-13T11:02:36.245Z,73.8
2018-05-13T11:03:44.902Z,71.78
2018-05-13T11:04:53.567Z,72.45
2018-05-13T11:06:02.472Z,72.84
2018-05-13T11:07:11.125Z,73.22
2018-05-13T11:08:20.318Z,72.84
2018-05-13T11:09:28.975Z,71.58
2018-05-13T11:10:37.627Z,70.65
2018-05-13T11:11:46.280Z,72
2018-05-13T11:12:54.926Z,70.56
2018-05-13T11:14:03.582Z,69.94
2018-05-13T11:15:12.234Z,71.72
2018-05-13T11:16:20.889Z,71.42
2018-05-13T11:17:29.546Z,69.4
2018-05-13T11:18:38.195Z,69.98
2018-05-13T11:19:46.856Z,68.72
2018-05-13T11:20:55.505Z,69.1
2018-05-13T11:22:04.432Z,68.14
2018-05-13T11:23:13.082Z,69.2
2018-05-13T11:24:21.737Z,69.1
2018-05-13T11:25:30.388Z,67.17
2018-05-13T11:26:39.306Z,67.75
2018-05-13T11:27:47.965Z,68.24
2018-05-13T11:28:56.623Z,69.1
2018-05-13T11:30:05.274Z,68.91
2018-05-13T11:31:13.924Z,68.91
2018-05-13T11:32:22.583Z,68.95
2018-05-13T11:33:31.238Z,69.24
2018-05-13T11:34:39.892Z,69.33
2018-05-13T11:35:48.545Z,68.66
2018-05-13T11:36:57.462Z,69.04
2018-05-13T11:38:06.115Z,69.04
2018-05-13T11:39:14.768Z,68.56
2018-05-13T11:40:23.417Z,69.24
2018-05-13T11:41:32.075Z,68.95
2018-05-13T11:42:40.727Z,71.11
2018-05-13T11:43:49.391Z,69.85
2018-05-13T11:44:58.307Z,71.36
2018-05-13T11:46:06.958Z,70.72
2018-05-13T11:47:15.611Z,70.14
2018-05-13T11:48:24.265Z,69.27
2018-05-13T11:49:33.184Z,67.91
2018-05-13T11:50:41.837Z,67.72
2018-05-13T11:51:50.755Z,68.21
2018-05-13T11:52:59.412Z,67.82
2018-05-13T11:54:08.065Z,67.91
2018-05-13T11:55:16.710Z,68.21
2018-05-13T11:56:25.430Z,68.21
2018-05-13T11:57:34.016Z,69.08
2018-05-13T11:58:42.676Z,66.69
2018-05-13T11:59:51.328Z,68.33
2018-05-13T12:00:59.981Z,69.11
2018-05-13T12:02:08.702Z,68.91
2018-05-13T12:03:17.286Z,66.3
2018-05-13T12:04:25.949Z,67.18
2018-05-13T12:05:34.604Z,68.53
2018-05-13T12:06:43.254Z,67.85
2018-05-13T12:07:51.904Z,67.08
2018-05-13T12:09:00.574Z,66.6
2018-05-13T12:10:09.479Z,67.27
2018-05-13T12:11:18.134Z,66.78
2018-05-13T12:12:26.784Z,68.15
2018-05-13T12:13:35.718Z,67.18
2018-05-13T12:14:44.369Z,68.33
2018-05-13T12:15:53.026Z,68.24
2018-05-13T12:17:01.675Z,67.95
2018-05-13T12:18:10.585Z,66.88
2018-05-13T12:19:19.243Z,67.46
2018-05-13T12:20:27.904Z,67.37
2018-05-13T12:21:36.560Z,68.91
2018-05-13T12:22:45.469Z,68.05
2018-05-13T12:23:54.124Z,66.6
2018-05-13T12:25:02.771Z,67.46
2018-05-13T12:26:11.435Z,65.53
2018-05-13T12:27:20.082Z,66.6
2018-05-13T12:28:28.738Z,65.92
2018-05-13T12:29:37.387Z,65.17
2018-05-13T12:30:46.053Z,64.5
2018-05-13T12:31:54.964Z,64.4
2018-05-13T12:33:04.153Z,64.43
2018-05-13T12:34:12.801Z,63.56
2018-05-13T12:35:21.461Z,64.14
2018-05-13T12:36:30.115Z,62.79
2018-05-13T12:37:39.026Z,63.69
2018-05-13T12:38:47.679Z,63.2
2018-05-13T12:39:56.335Z,63.59
2018-05-13T12:41:05.009Z,63.49
2018-05-13T12:42:13.659Z,63.04
2018-05-13T12:43:22.321Z,64.11
2018-05-13T12:44:31.232Z,63.33
2018-05-13T12:45:39.895Z,63.04
2018-05-13T12:46:48.547Z,61.75
2018-05-13T12:47:57.207Z,61.94
2018-05-13T12:49:05.851Z,64.53
2018-05-13T12:50:14.599Z,63.46
2018-05-13T12:51:23.169Z,63.14
2018-05-13T12:52:31.824Z,65.37
2018-05-13T12:53:40.471Z,65.53
2018-05-13T12:54:49.129Z,65.34
2018-05-13T12:55:57.790Z,65.63
2018-05-13T12:57:06.445Z,66.08
2018-05-13T12:58:15.101Z,67.33
2018-05-13T12:59:23.750Z,67.79
2018-05-13T13:00:32.409Z,67.79
2018-05-13T13:01:41.057Z,68.75
2018-05-13T13:02:49.724Z,69.59
2018-05-13T13:03:58.373Z,70.14
2018-05-13T13:05:07.298Z,70.81
2018-05-13T13:06:15.977Z,69.84
2018-05-13T13:07:24.607Z,71.45
2018-05-13T13:08:33.252Z,72.8
2018-05-13T13:09:41.909Z,72.67
2018-05-13T13:10:50.560Z,73.06
2018-05-13T13:11:59.217Z,75.47
2018-05-13T13:13:07.868Z,80.87
2018-05-13T13:14:16.520Z,83.25
2018-05-13T13:15:25.167Z,83.88
2018-05-13T13:16:33.815Z,87.93
2018-05-13T13:17:42.471Z,90.78
2018-05-13T13:18:51.123Z,93.48
2018-05-13T13:19:59.834Z,94.97
2018-05-13T13:21:08.422Z,96.17
2018-05-13T13:22:17.088Z,97.76
2018-05-13T13:23:25.727Z,98.1
2018-05-13T13:24:34.376Z,98.96
2018-05-13T13:25:43.023Z,99.2
2018-05-13T13:26:51.673Z,99.78
2018-05-13T13:28:00.320Z,99.99
2018-05-13T13:29:08.974Z,99.99
2018-05-13T13:30:18.052Z,99.99
2018-05-13T13:31:26.901Z,99.99
2018-05-13T13:32:35.549Z,99.99
2018-05-13T13:33:44.198Z,99.99
2018-05-13T13:34:53.114Z,99.99
2018-05-13T13:36:01.758Z,99.99
2018-05-13T13:37:10.403Z,99.99
2018-05-13T13:38:19.312Z,99.99
2018-05-13T13:39:27.965Z,99.99
2018-05-13T13:40:36.606Z,99.99
2018-05-13T13:41:45.259Z,99.99
2018-05-13T13:42:54.177Z,99.99
2018-05-13T13:44:02.825Z,99.99
2018-05-13T13:45:11.464Z,99.99
2018-05-13T13:46:20.113Z,99.99
2018-05-13T13:47:28.760Z,99.99
2018-05-13T13:48:37.409Z,99.99
2018-05-13T13:49:46.054Z,99.99
2018-05-13T13:50:54.976Z,99.99
2018-05-13T13:52:03.621Z,99.99
2018-05-13T13:53:12.267Z,99.99
2018-05-13T13:54:20.918Z,99.99
2018-05-13T13:55:29.558Z,99.99
2018-05-13T13:56:38.209Z,99.91
2018-05-13T13:57:46.851Z,99.99
2018-05-13T13:58:55.502Z,99.99
2018-05-13T14:00:04.149Z,99.99
2018-05-13T14:01:12.796Z,99.99
2018-05-13T14:02:21.439Z,99.99
2018-05-13T14:03:30.088Z,99.99
2018-05-13T14:04:39.002Z,99.99
2018-05-13T14:05:47.651Z,99.99
2018-05-13T14:06:56.292Z,99.99
2018-05-13T14:08:04.950Z,99.99
2018-05-13T14:09:13.590Z,99.99
2018-05-13T14:10:22.244Z,99.99
2018-05-13T14:11:30.893Z,99.99
2018-05-13T14:12:39.532Z,99.99
2018-05-13T14:13:48.183Z,99.99
2018-05-13T14:14:56.828Z,99.99
2018-05-13T14:16:05.479Z,99.99
2018-05-13T14:17:14.122Z,99.99
2018-05-13T14:18:22.772Z,99.99
2018-05-13T14:19:31.685Z,99.99
2018-05-13T14:20:40.727Z,99.99
2018-05-13T14:21:49.257Z,99.99
2018-05-13T14:22:57.903Z,99.99
2018-05-13T14:24:06.815Z,99.99
2018-05-13T14:25:15.738Z,99.99
2018-05-13T14:26:24.383Z,99.99
2018-05-13T14:27:33.023Z,99.99
2018-05-13T14:28:41.669Z,99.99
2018-05-13T14:29:50.320Z,99.99
2018-05-13T14:30:58.974Z,99.99
2018-05-13T14:32:07.618Z,99.99
2018-05-13T14:33:16.264Z,99.99
2018-05-13T14:34:24.902Z,99.99
2018-05-13T14:35:33.557Z,99.99
2018-05-13T14:36:42.200Z,99.99
2018-05-13T14:37:50.851Z,99.99
2018-05-13T14:38:59.488Z,99.99
2018-05-13T14:40:16.954Z,99.99
2018-05-13T14:41:25.598Z,99.99
2018-05-13T14:42:34.248Z,99.99
2018-05-13T14:43:42.888Z,99.99
2018-05-13T14:44:51.541Z,99.99
2018-05-13T14:46:00.193Z,99.99
2018-05-13T14:47:09.101Z,99.99